Latest Weather Observations for Brisbane

IDQ60901

Issued at 8:15 am EST Sunday 31 August 2014 (issued every 10 minutes, with the page automatically refreshed every 10 minutes)

About weather observations | Map of Brisbane area stations | Latest observations for Brisbane area | Other Formats
Station Details ID: 040913 Name: BRISBANE Lat: -27.48 Lon: 153.04 Height: 8.13 m
Data from the previous 72 hours. | See also: Recent months at Brisbane
Date/Time
EST
Tmp

°C
App
Tmp
°C
Dew
Point
°C
Rel
Hum
%
Delta-T

°C
Wind Press
QNH
hPa
Press
MSL
hPa
Rain
since
9 am
mm
Dir
 
Spd
km/h
Gust
km/h
Spd
kts
Gust
kts
31/08:00am 16.8 16.0 10.9 68 3.2 SW 6 11 3 6 1019.3 1019.3 0.0
31/07:30am 16.2 16.3 11.4 73 2.6 WSW 2 4 1 2 1019.1 1019.1 0.0
31/07:00am 15.2 14.9 11.4 78 2.0 SSW 4 9 2 5 1019.0 1019.0 0.0
31/06:30am 13.9 13.9 11.1 83 1.5 SW 2 6 1 3 1018.8 1018.8 0.0
31/06:00am 13.7 13.2 10.7 82 1.6 SW 4 9 2 5 1018.5 1018.5 0.0
31/05:30am 13.9 13.8 10.7 81 1.7 WSW 2 4 1 2 1018.2 1018.2 0.0
31/05:00am 14.5 14.4 10.7 78 2.0 WSW 2 6 1 3 1018.0 1018.0 0.0
31/04:30am 15.0 15.3 10.8 76 2.2 CALM 0 4 0 2 1018.0 1018.0 0.0
31/04:00am 15.3 15.3 11.1 76 2.2 SW 2 4 1 2 1018.0 1018.0 0.0
31/03:30am 15.4 15.4 11.2 76 2.2 WSW 2 6 1 3 1017.9 1017.9 0.0
31/03:00am 15.5 15.2 11.5 77 2.1 SW 4 7 2 4 1017.8 1017.8 0.0
31/02:30am 15.7 15.9 11.9 78 2.1 SSW 2 4 1 2 1017.9 1017.9 0.0
31/02:00am 15.2 15.8 12.0 81 1.7 CALM 0 0 0 0 1018.0 1018.0 0.0
31/01:30am 14.9 15.5 11.9 82 1.6 CALM 0 0 0 0 1018.1 1018.1 0.0
31/01:00am 14.8 15.4 11.9 83 1.6 CALM 0 0 0 0 1018.1 1018.1 0.0
31/12:30am 14.4 14.9 11.6 83 1.5 CALM 0 0 0 0 1018.3 1018.3 0.0
31/12:00am 14.7 15.1 11.3 80 1.8 SSE 0 0 0 0 1018.4 1018.4 0.0
 
Date/Time
EST
Tmp

°C
App
Tmp
°C
Dew
Point
°C
Rel
Hum
%
Delta-T

°C
Wind Press
QNH
hPa
Press
MSL
hPa
Rain
since
9 am
mm
Dir
 
Spd
km/h
Gust
km/h
Spd
kts
Gust
kts
30/11:30pm 15.0 15.3 11.0 77 2.1 CALM 0 0 0 0 1018.5 1018.5 0.0
30/11:00pm 15.8 16.2 11.4 75 2.4 CALM 0 0 0 0 1018.6 1018.6 0.0
30/10:30pm 15.8 16.2 11.4 75 2.4 CALM 0 0 0 0 1018.5 1018.5 0.0
30/10:00pm 15.7 16.1 11.3 75 2.4 CALM 0 0 0 0 1018.4 1018.4 0.0
30/09:30pm 15.4 15.8 11.2 76 2.2 CALM 0 4 0 2 1018.3 1018.3 0.0
30/09:00pm 15.8 16.2 11.2 74 2.5 CALM 0 2 0 1 1018.5 1018.5 0.0
30/08:30pm 16.6 17.1 11.7 73 2.7 CALM 0 0 0 0 1018.5 1018.5 0.0
30/08:00pm 16.4 16.8 11.1 71 2.8 N 0 4 0 2 1018.3 1018.3 0.0
30/07:30pm 16.6 16.6 11.1 70 3.0 N 2 4 1 2 1018.1 1018.1 0.0
30/07:00pm 16.6 16.8 10.5 67 3.2 CALM 0 4 0 2 1017.7 1017.7 0.0
30/06:30pm 17.6 17.8 10.7 64 3.7 CALM 0 4 0 2 1017.4 1017.4 0.0
30/06:00pm 18.3 18.1 10.4 60 4.2 NNE 2 6 1 3 1017.3 1017.3 0.0
30/05:30pm 19.3 18.1 10.3 56 4.8 E 7 11 4 6 1017.2 1017.2 0.0
30/05:00pm 19.9 18.2 10.0 53 5.3 E 9 13 5 7 1017.0 1017.0 0.0
30/04:30pm 20.7 19.4 9.9 50 5.8 ENE 7 13 4 7 1016.8 1016.8 0.0
30/04:00pm 20.6 19.5 9.8 50 5.8 NE 6 11 3 6 1016.5 1016.5 0.0
30/03:30pm 20.1 17.7 8.8 48 5.9 ENE 11 15 6 8 1016.4 1016.4 0.0
30/03:00pm 23.1 21.7 8.8 40 7.6 SSE 6 15 3 8 1016.2 1016.2 0.0
30/02:30pm 23.2 22.2 8.9 40 7.7 SSW 4 11 2 6 1016.2 1016.2 0.0
30/02:00pm 23.5 22.0 9.1 40 7.7 WSW 7 13 4 7 1016.3 1016.3 0.0
30/01:30pm 23.2 21.8 8.9 40 7.7 W 6 15 3 8 1016.6 1016.6 0.0
30/01:00pm 22.5 21.0 9.0 42 7.2 SSW 7 17 4 9 1017.1 1017.1 0.0
30/12:30pm 22.3 21.4 9.1 43 7.1 NW 4 9 2 5 1017.5 1017.5 0.0
30/12:00pm 21.8 20.3 9.0 44 6.8 WSW 7 15 4 8 1018.2 1018.2 0.0
30/11:30am 21.4 19.7 7.6 41 7.1 WSW 6 9 3 5 1018.7 1018.7 0.0
30/11:00am 20.8 18.7 6.7 40 7.1 SW 7 15 4 8 1019.0 1019.0 0.0
30/10:30am 20.0 18.5 8.4 47 6.0 WSW 6 13 3 7 1019.5 1019.5 0.0
30/10:00am 18.7 16.9 8.1 50 5.4 SW 7 11 4 6 1019.8 1019.8 0.0
30/09:30am 18.1 16.3 8.1 52 5.1 WSW 7 13 4 7 1020.2 1020.2 0.0
30/09:00am 16.7 15.2 9.1 61 3.9 SSW 7 11 4 6 1020.4 1020.4 0.0
30/08:30am 15.1 13.7 9.0 67 3.1 SW 6 9 3 5 1020.5 1020.5 0.0
30/08:00am 14.0 13.1 9.4 74 2.3 SW 4 7 2 4 1020.5 1020.5 0.0
30/07:30am 12.1 10.6 8.6 79 1.7 SW 6 9 3 5 1020.5 1020.5 0.0
30/07:00am 11.2 9.7 8.4 83 1.4 SW 6 11 3 6 1020.3 1020.3 0.0
30/06:30am 10.4 8.9 8.5 88 0.9 SSW 6 13 3 7 1020.1 1020.1 0.0
30/06:00am 10.0 8.8 8.1 88 0.9 SW 4 7 2 4 1019.8 1019.8 0.0
30/05:30am 10.1 8.9 8.2 88 0.9 WSW 4 6 2 3 1019.4 1019.4 0.0
30/05:00am 10.3 9.1 8.2 87 1.0 WSW 4 9 2 5 1019.2 1019.2 0.0
30/04:30am 10.3 9.9 8.4 88 0.9 CALM 0 6 0 3 1019.2 1019.2 0.0
30/04:00am 10.5 9.8 8.4 87 1.0 SSW 2 6 1 3 1019.2 1019.2 0.0
30/03:30am 10.9 10.3 8.8 87 1.0 WSW 2 4 1 2 1019.1 1019.1 0.0
30/03:00am 11.2 11.0 9.1 87 1.0 CALM 0 4 0 2 1019.2 1019.2 0.0
30/02:30am 11.1 10.6 9.2 88 0.9 WSW 2 2 1 1 1019.3 1019.3 0.0
30/02:00am 10.5 9.9 9.1 91 0.7 SSW 2 4 1 2 1019.5 1019.5 0.0
30/01:30am 10.2 9.9 8.5 89 0.8 CALM 0 0 0 0 1019.7 1019.7 0.0
30/01:00am 10.4 9.9 8.0 85 1.2 CALM 0 0 0 0 1019.9 1019.9 0.0
30/12:30am 10.9 10.4 8.0 82 1.4 CALM 0 0 0 0 1019.9 1019.9 0.0
30/12:00am 11.4 10.9 7.9 79 1.7 CALM 0 0 0 0 1020.0 1020.0 0.0
 
Date/Time
EST
Tmp

°C
App
Tmp
°C
Dew
Point
°C
Rel
Hum
%
Delta-T

°C
Wind Press
QNH
hPa
Press
MSL
hPa
Rain
since
9 am
mm
Dir
 
Spd
km/h
Gust
km/h
Spd
kts
Gust
kts
29/11:30pm 12.0 11.5 7.9 76 2.0 CALM 0 0 0 0 1020.1 1020.1 0.0
29/11:00pm 12.6 12.2 8.3 75 2.1 CALM 0 2 0 1 1020.4 1020.4 0.0
29/10:30pm 12.9 12.7 9.2 78 1.9 CALM 0 4 0 2 1020.5 1020.5 0.0
29/10:00pm 13.1 13.0 9.4 78 1.9 CALM 0 0 0 0 1020.6 1020.6 0.0
29/09:30pm 13.2 13.1 9.5 78 1.9 CALM 0 4 0 2 1020.5 1020.5 0.0
29/09:00pm 13.2 13.1 9.3 77 2.0 CALM 0 0 0 0 1020.6 1020.6 0.0
29/08:30pm 13.9 13.8 9.3 74 2.3 CALM 0 0 0 0 1020.5 1020.5 0.0
29/08:00pm 14.5 14.4 9.3 71 2.7 CALM 0 0 0 0 1020.5 1020.5 0.0
29/07:30pm 14.9 14.4 9.3 69 2.9 NE 2 4 1 2 1020.5 1020.5 0.0
29/07:00pm 15.4 15.2 8.9 65 3.3 CALM 0 2 0 1 1020.4 1020.4 0.0
29/06:30pm 16.3 15.6 8.5 60 4.0 ENE 2 4 1 2 1020.3 1020.3 0.0
29/06:00pm 17.5 16.1 8.9 57 4.4 E 6 7 3 4 1020.0 1020.0 0.0
29/05:30pm 18.3 16.2 8.3 52 5.1 E 9 13 5 7 1019.7 1019.7 0.0
29/05:00pm 19.3 17.2 8.3 49 5.7 E 9 15 5 8 1019.3 1019.3 0.0
29/04:30pm 19.8 17.8 8.5 48 5.9 ENE 9 15 5 8 1019.1 1019.1 0.0
29/04:00pm 20.6 18.7 8.9 47 6.2 ENE 9 20 5 11 1018.9 1018.9 0.0
29/03:30pm 21.4 19.6 7.3 40 7.3 E 6 20 3 11 1018.8 1018.8 0.0
29/03:00pm 22.8 20.6 5.3 32 8.7 S 6 15 3 8 1018.7 1018.7 0.0
29/02:30pm 23.4 21.4 4.4 29 9.4 SW 4 11 2 6 1018.9 1018.9 0.0
29/02:00pm 22.8 20.4 5.3 32 8.7 W 7 13 4 7 1019.2 1019.2 0.0
29/01:30pm 22.1 19.7 5.1 33 8.4 WNW 7 17 4 9 1019.6 1019.6 0.0
29/01:00pm 22.5 20.4 5.9 34 8.4 WSW 6 11 3 6 1020.0 1020.0 0.0
29/12:30pm 22.5 20.9 6.3 35 8.2 NW 4 11 2 6 1020.5 1020.5 0.0
29/12:00pm 21.0 18.9 5.8 37 7.6 WSW 6 13 3 7 1021.1 1021.1 0.0
29/11:30am 20.9 18.8 6.8 40 7.2 S 7 17 4 9 1021.4 1021.4 0.0
29/11:00am 20.4 18.5 6.7 41 6.9 SW 6 13 3 7 1022.0 1022.0 0.0
29/10:30am 20.1 18.4 8.4 47 6.1 WSW 7 17 4 9 1022.5 1022.5 0.0
29/10:00am 19.0 17.2 7.1 46 6.0 WSW 6 13 3 7 1022.8 1022.8 0.0
29/09:30am 18.2 16.1 8.2 52 5.1 WSW 9 15 5 8 1023.2 1023.2 0.0
29/09:00am 17.4 15.5 7.5 52 5.0 SW 7 13 4 7 1023.2 1023.2 0.0
29/08:30am 16.8 15.1 7.4 54 4.7 WSW 6 15 3 8 1023.1 1023.1 0.0
29/08:00am 16.0 14.1 7.7 58 4.1 SW 7 13 4 7 1023.1 1023.1 0.0
29/07:30am 14.9 13.2 7.7 62 3.6 WSW 6 9 3 5 1022.8 1022.8 0.0
29/07:00am 13.8 12.5 7.8 67 2.9 SW 4 9 2 5 1022.5 1022.5 0.0
29/06:30am 12.6 11.3 7.7 72 2.4 WSW 4 7 2 4 1022.1 1022.1 0.0
29/06:00am 12.5 10.9 7.8 73 2.3 WSW 6 7 3 4 1021.9 1021.9 0.0
29/05:30am 12.6 10.8 7.9 73 2.3 WSW 7 11 4 6 1021.5 1021.5 0.0
29/05:00am 12.8 11.2 7.9 72 2.4 WSW 6 9 3 5 1021.3 1021.3 0.0
29/04:30am 12.7 11.1 8.2 74 2.2 WSW 6 13 3 7 1021.1 1021.1 0.0
29/04:00am 12.6 10.9 8.3 75 2.1 WSW 7 13 4 7 1021.0 1021.0 0.0
29/03:30am 12.6 11.5 8.3 75 2.1 WSW 4 7 2 4 1021.1 1021.1 0.0
29/03:00am 13.2 12.1 8.5 73 2.3 WSW 4 7 2 4 1021.1 1021.1 0.0
29/02:30am 13.2 12.1 8.5 73 2.3 WSW 4 7 2 4 1021.2 1021.2 0.0
29/02:00am 13.4 11.8 8.0 70 2.7 SW 6 9 3 5 1021.2 1021.2 0.0
29/01:30am 13.7 12.7 8.7 72 2.5 WSW 4 7 2 4 1021.4 1021.4 0.0
29/01:00am 13.9 12.5 8.9 72 2.5 WSW 6 9 3 5 1021.7 1021.7 0.0
29/12:30am 13.4 12.9 9.3 76 2.1 WSW 2 7 1 4 1021.9 1021.9 0.0
29/12:00am 13.3 12.7 9.0 75 2.2 WSW 2 6 1 3 1021.8 1021.8 0.0
 
Date/Time
EST
Tmp

°C
App
Tmp
°C
Dew
Point
°C
Rel
Hum
%
Delta-T

°C
Wind Press
QNH
hPa
Press
MSL
hPa
Rain
since
9 am
mm
Dir
 
Spd
km/h
Gust
km/h
Spd
kts
Gust
kts
28/11:30pm 13.8 13.7 9.5 75 2.2 CALM 0 6 0 3 1021.9 1021.9 0.0
28/11:00pm 13.9 13.0 9.3 74 2.3 W 4 6 2 3 1021.8 1021.8 0.0
28/10:30pm 14.8 13.6 9.4 70 2.8 SSW 6 9 3 5 1021.8 1021.8 0.0
28/10:00pm 15.0 14.1 9.4 69 2.9 SW 4 9 2 5 1021.8 1021.8 0.0
28/09:30pm 15.5 14.3 9.4 67 3.1 SW 6 11 3 6 1022.1 1022.1 0.0
28/09:00pm 15.8 14.6 9.5 66 3.3 SSW 6 11 3 6 1022.1 1022.1 0.0
28/08:30pm 16.1 14.9 9.5 65 3.4 SW 6 11 3 6 1021.9 1021.9 0.0
28/08:00pm 16.8 15.6 9.7 63 3.7 SW 6 13 3 7 1021.7 1021.7 0.0
28/07:30pm 17.4 16.0 9.6 60 4.1 SSW 7 15 4 8 1021.5 1021.5 0.0
28/07:00pm 17.8 16.3 9.2 57 4.5 S 7 15 4 8 1021.0 1021.0 0.0
28/06:30pm 18.2 16.7 9.0 55 4.8 S 7 11 4 6 1020.5 1020.5 0.0
28/06:00pm 18.8 17.0 9.3 54 5.0 S 9 19 5 10 1019.9 1019.9 0.0
28/05:30pm 19.5 17.6 9.1 51 5.5 SSW 9 28 5 15 1019.6 1019.6 0.0
28/05:00pm 20.9 18.3 9.2 47 6.2 SSW 13 24 7 13 1019.0 1019.0 0.0
28/04:30pm 22.3 19.4 6.5 36 8.1 S 11 19 6 10 1018.2 1018.2 0.0
28/04:00pm 22.2 19.3 6.4 36 8.0 S 11 22 6 12 1017.8 1017.8 0.0
28/03:30pm 22.1 19.4 8.9 43 7.0 SSW 13 26 7 14 1017.5 1017.5 0.0
28/03:00pm 22.6 19.9 7.2 37 8.0 S 11 24 6 13 1017.2 1017.2 0.0
28/02:30pm 22.8 18.8 6.6 35 8.3 S 17 32 9 17 1017.0 1017.0 0.0
28/02:00pm 22.8 20.2 7.8 38 7.8 S 11 22 6 12 1016.8 1016.8 0.0
28/01:30pm 23.6 20.8 8.5 38 8.0 S 13 22 7 12 1016.8 1016.8 0.0
28/01:00pm 21.8 19.2 9.3 45 6.7 S 13 28 7 15 1016.6 1016.6 0.0
28/12:30pm 21.5 19.9 10.3 49 6.1 SSW 9 28 5 15 1016.6 1016.6 0.0
28/12:00pm 21.7 19.3 9.9 47 6.4 S 13 35 7 19 1016.6 1016.6 0.0
28/11:30am 21.1 19.2 10.6 51 5.7 S 11 28 6 15 1016.7 1016.7 0.0
28/11:00am 20.7 18.6 11.3 55 5.2 S 13 24 7 13 1016.7 1016.7 0.0
28/10:30am 19.7 17.2 11.2 58 4.7 SSW 15 30 8 16 1016.9 1016.9 0.0
28/10:00am 19.3 17.2 11.3 60 4.4 SSW 13 30 7 16 1016.9 1016.9 0.0
28/09:30am 19.6 17.6 11.4 59 4.5 SSW 13 24 7 13 1016.4 1016.4 0.0
28/09:00am 19.5 17.8 12.3 63 4.0 SSW 13 24 7 13 1016.2 1016.2 3.6
28/08:30am 17.5 16.9 12.2 71 2.9 SW 7 17 4 9 1015.8 1015.8 3.6

Latest Capital City Observations: Canberra | Sydney | Melbourne | Brisbane | Adelaide | Perth | Hobart | Darwin

Other Formats:

Comma delimited format used in spreadsheet applications
http://www.bom.gov.au/fwo/IDQ60901/IDQ60901.94576.axf

JavaScript Object Notation format (JSON) in row-major order
http://www.bom.gov.au/fwo/IDQ60901/IDQ60901.94576.json